sensor_id;sensor_type;location;lat;lon;timestamp;P1;durP1;ratioP1;P2;durP2;ratioP2
20034;SDS011;10178;48.034;9.800;2023-03-29T00:00:18;4.07;;;2.10;;
20034;SDS011;10178;48.034;9.800;2023-03-29T00:02:44;3.27;;;1.90;;
20034;SDS011;10178;48.034;9.800;2023-03-29T00:05:12;5.00;;;2.17;;
20034;SDS011;10178;48.034;9.800;2023-03-29T00:07:39;2.30;;;1.93;;
20034;SDS011;10178;48.034;9.800;2023-03-29T00:10:06;3.03;;;2.08;;
20034;SDS011;10178;48.034;9.800;2023-03-29T00:12:34;3.33;;;2.03;;
20034;SDS011;10178;48.034;9.800;2023-03-29T00:15:00;3.10;;;2.00;;
20034;SDS011;10178;48.034;9.800;2023-03-29T00:17:27;2.13;;;1.90;;
20034;SDS011;10178;48.034;9.800;2023-03-29T00:19:53;4.23;;;2.33;;
20034;SDS011;10178;48.034;9.800;2023-03-29T00:22:19;2.73;;;2.27;;
20034;SDS011;10178;48.034;9.800;2023-03-29T00:24:45;3.23;;;2.00;;
20034;SDS011;10178;48.034;9.800;2023-03-29T00:27:13;3.60;;;1.90;;
20034;SDS011;10178;48.034;9.800;2023-03-29T00:29:41;3.53;;;2.30;;
20034;SDS011;10178;48.034;9.800;2023-03-29T00:32:07;1.73;;;1.63;;
20034;SDS011;10178;48.034;9.800;2023-03-29T00:34:33;1.60;;;1.50;;
20034;SDS011;10178;48.034;9.800;2023-03-29T00:37:00;2.35;;;1.67;;
20034;SDS011;10178;48.034;9.800;2023-03-29T00:39:28;1.80;;;1.57;;
20034;SDS011;10178;48.034;9.800;2023-03-29T00:41:55;1.80;;;1.60;;
20034;SDS011;10178;48.034;9.800;2023-03-29T00:47:25;2.23;;;1.60;;
20034;SDS011;10178;48.034;9.800;2023-03-29T00:55:43;5.40;;;2.47;;
20034;SDS011;10178;48.034;9.800;2023-03-29T00:58:25;3.42;;;1.90;;
20034;SDS011;10178;48.034;9.800;2023-03-29T01:00:58;3.85;;;2.20;;
20034;SDS011;10178;48.034;9.800;2023-03-29T01:03:28;3.08;;;2.63;;
20034;SDS011;10178;48.034;9.800;2023-03-29T01:06:04;6.15;;;2.65;;
20034;SDS011;10178;48.034;9.800;2023-03-29T01:09:06;5.00;;;3.13;;
20034;SDS011;10178;48.034;9.800;2023-03-29T01:11:28;3.70;;;2.37;;
20034;SDS011;10178;48.034;9.800;2023-03-29T01:14:00;6.17;;;2.80;;
20034;SDS011;10178;48.034;9.800;2023-03-29T01:16:29;6.23;;;2.80;;
20034;SDS011;10178;48.034;9.800;2023-03-29T01:18:57;3.87;;;2.53;;
20034;SDS011;10178;48.034;9.800;2023-03-29T01:29:04;1.93;;;1.60;;
20034;SDS011;10178;48.034;9.800;2023-03-29T01:31:48;1.77;;;1.60;;
20034;SDS011;10178;48.034;9.800;2023-03-29T01:36:59;1.80;;;1.70;;
20034;SDS011;10178;48.034;9.800;2023-03-29T01:39:28;3.10;;;2.80;;
20034;SDS011;10178;48.034;9.800;2023-03-29T01:41:58;2.53;;;1.70;;
20034;SDS011;10178;48.034;9.800;2023-03-29T01:44:55;1.73;;;1.60;;
20034;SDS011;10178;48.034;9.800;2023-03-29T01:47:46;4.53;;;2.10;;
20034;SDS011;10178;48.034;9.800;2023-03-29T01:50:29;5.15;;;2.55;;
20034;SDS011;10178;48.034;9.800;2023-03-29T01:53:00;1.67;;;1.52;;
20034;SDS011;10178;48.034;9.800;2023-03-29T01:55:32;2.22;;;1.70;;
20034;SDS011;10178;48.034;9.800;2023-03-29T01:58:02;2.00;;;1.50;;
20034;SDS011;10178;48.034;9.800;2023-03-29T02:00:30;3.60;;;1.40;;
20034;SDS011;10178;48.034;9.800;2023-03-29T02:02:59;5.75;;;1.90;;
20034;SDS011;10178;48.034;9.800;2023-03-29T02:05:30;2.20;;;2.00;;
20034;SDS011;10178;48.034;9.800;2023-03-29T02:07:57;2.10;;;1.60;;
20034;SDS011;10178;48.034;9.800;2023-03-29T02:10:25;3.23;;;1.60;;
20034;SDS011;10178;48.034;9.800;2023-03-29T02:12:51;1.70;;;1.60;;
20034;SDS011;10178;48.034;9.800;2023-03-29T02:15:18;1.83;;;1.53;;
20034;SDS011;10178;48.034;9.800;2023-03-29T02:17:45;2.03;;;1.50;;
20034;SDS011;10178;48.034;9.800;2023-03-29T02:20:20;1.43;;;1.30;;
20034;SDS011;10178;48.034;9.800;2023-03-29T02:23:08;1.85;;;1.52;;
20034;SDS011;10178;48.034;9.800;2023-03-29T02:25:38;4.57;;;1.73;;
20034;SDS011;10178;48.034;9.800;2023-03-29T02:28:05;2.40;;;1.60;;
20034;SDS011;10178;48.034;9.800;2023-03-29T02:33:19;2.23;;;1.43;;
20034;SDS011;10178;48.034;9.800;2023-03-29T02:35:59;1.40;;;1.30;;
20034;SDS011;10178;48.034;9.800;2023-03-29T02:38:37;2.38;;;1.52;;
20034;SDS011;10178;48.034;9.800;2023-03-29T02:41:04;1.75;;;1.23;;
20034;SDS011;10178;48.034;9.800;2023-03-29T02:43:31;3.57;;;1.67;;
20034;SDS011;10178;48.034;9.800;2023-03-29T02:45:58;2.97;;;1.70;;
20034;SDS011;10178;48.034;9.800;2023-03-29T02:48:25;1.80;;;1.40;;
20034;SDS011;10178;48.034;9.800;2023-03-29T02:50:53;2.30;;;1.50;;
20034;SDS011;10178;48.034;9.800;2023-03-29T02:53:23;1.83;;;1.70;;
20034;SDS011;10178;48.034;9.800;2023-03-29T02:55:54;5.50;;;1.80;;
20034;SDS011;10178;48.034;9.800;2023-03-29T02:58:20;2.47;;;1.30;;
20034;SDS011;10178;48.034;9.800;2023-03-29T03:00:52;2.60;;;1.20;;
20034;SDS011;10178;48.034;9.800;2023-03-29T03:03:20;1.47;;;1.37;;
20034;SDS011;10178;48.034;9.800;2023-03-29T03:05:46;2.57;;;1.40;;
20034;SDS011;10178;48.034;9.800;2023-03-29T03:08:12;3.17;;;1.50;;
20034;SDS011;10178;48.034;9.800;2023-03-29T03:10:39;3.10;;;1.70;;
20034;SDS011;10178;48.034;9.800;2023-03-29T03:13:05;1.40;;;1.20;;
20034;SDS011;10178;48.034;9.800;2023-03-29T03:15:31;2.17;;;1.60;;
20034;SDS011;10178;48.034;9.800;2023-03-29T03:17:59;1.03;;;1.03;;
20034;SDS011;10178;48.034;9.800;2023-03-29T03:20:27;1.57;;;1.47;;
20034;SDS011;10178;48.034;9.800;2023-03-29T03:22:53;2.33;;;1.50;;
20034;SDS011;10178;48.034;9.800;2023-03-29T03:25:19;3.42;;;1.60;;
20034;SDS011;10178;48.034;9.800;2023-03-29T03:27:45;1.70;;;1.40;;
20034;SDS011;10178;48.034;9.800;2023-03-29T03:30:14;4.47;;;1.70;;
20034;SDS011;10178;48.034;9.800;2023-03-29T03:32:40;1.87;;;1.33;;
20034;SDS011;10178;48.034;9.800;2023-03-29T03:35:07;1.43;;;1.27;;
20034;SDS011;10178;48.034;9.800;2023-03-29T03:37:35;1.50;;;1.40;;
20034;SDS011;10178;48.034;9.800;2023-03-29T03:40:05;2.47;;;1.60;;
20034;SDS011;10178;48.034;9.800;2023-03-29T03:42:39;2.27;;;1.53;;
20034;SDS011;10178;48.034;9.800;2023-03-29T03:45:05;1.23;;;0.90;;
20034;SDS011;10178;48.034;9.800;2023-03-29T03:47:32;2.33;;;1.40;;
20034;SDS011;10178;48.034;9.800;2023-03-29T03:49:59;1.60;;;1.50;;
20034;SDS011;10178;48.034;9.800;2023-03-29T03:52:24;3.23;;;1.20;;
20034;SDS011;10178;48.034;9.800;2023-03-29T03:54:50;3.00;;;1.23;;
20034;SDS011;10178;48.034;9.800;2023-03-29T03:57:16;10.13;;;5.83;;
20034;SDS011;10178;48.034;9.800;2023-03-29T03:59:42;14.57;;;10.13;;
20034;SDS011;10178;48.034;9.800;2023-03-29T04:02:08;4.13;;;2.42;;
20034;SDS011;10178;48.034;9.800;2023-03-29T04:04:34;3.38;;;2.42;;
20034;SDS011;10178;48.034;9.800;2023-03-29T04:07:00;2.67;;;1.58;;
20034;SDS011;10178;48.034;9.800;2023-03-29T04:09:32;2.13;;;1.60;;
20034;SDS011;10178;48.034;9.800;2023-03-29T04:11:58;1.30;;;1.20;;
20034;SDS011;10178;48.034;9.800;2023-03-29T04:14:25;2.90;;;2.25;;
20034;SDS011;10178;48.034;9.800;2023-03-29T04:16:51;6.17;;;1.87;;
20034;SDS011;10178;48.034;9.800;2023-03-29T04:19:18;1.33;;;1.23;;
20034;SDS011;10178;48.034;9.800;2023-03-29T04:21:44;2.40;;;1.80;;
20034;SDS011;10178;48.034;9.800;2023-03-29T04:24:11;3.27;;;1.63;;
20034;SDS011;10178;48.034;9.800;2023-03-29T04:26:37;2.30;;;1.75;;
20034;SDS011;10178;48.034;9.800;2023-03-29T04:29:03;1.47;;;1.37;;
20034;SDS011;10178;48.034;9.800;2023-03-29T04:31:29;2.20;;;1.50;;
20034;SDS011;10178;48.034;9.800;2023-03-29T04:33:56;1.13;;;1.00;;
20034;SDS011;10178;48.034;9.800;2023-03-29T04:36:21;1.52;;;1.42;;
20034;SDS011;10178;48.034;9.800;2023-03-29T04:38:47;1.10;;;1.00;;
20034;SDS011;10178;48.034;9.800;2023-03-29T04:41:16;1.33;;;0.90;;
20034;SDS011;10178;48.034;9.800;2023-03-29T04:43:45;2.13;;;0.90;;
20034;SDS011;10178;48.034;9.800;2023-03-29T04:46:11;1.63;;;0.83;;
20034;SDS011;10178;48.034;9.800;2023-03-29T04:48:37;1.37;;;1.20;;
20034;SDS011;10178;48.034;9.800;2023-03-29T04:51:03;1.83;;;1.00;;
20034;SDS011;10178;48.034;9.800;2023-03-29T04:53:29;2.77;;;1.00;;
20034;SDS011;10178;48.034;9.800;2023-03-29T04:55:55;3.37;;;2.00;;
20034;SDS011;10178;48.034;9.800;2023-03-29T04:58:23;3.33;;;1.15;;
20034;SDS011;10178;48.034;9.800;2023-03-29T05:00:55;1.50;;;0.80;;
20034;SDS011;10178;48.034;9.800;2023-03-29T05:03:24;1.43;;;1.17;;
20034;SDS011;10178;48.034;9.800;2023-03-29T05:05:50;1.40;;;1.20;;
20034;SDS011;10178;48.034;9.800;2023-03-29T05:08:16;1.77;;;1.10;;
20034;SDS011;10178;48.034;9.800;2023-03-29T05:10:43;3.40;;;1.67;;
20034;SDS011;10178;48.034;9.800;2023-03-29T05:13:09;2.00;;;0.97;;
20034;SDS011;10178;48.034;9.800;2023-03-29T05:15:35;5.63;;;1.40;;
20034;SDS011;10178;48.034;9.800;2023-03-29T05:18:01;6.57;;;1.27;;
20034;SDS011;10178;48.034;9.800;2023-03-29T05:20:29;4.15;;;1.30;;
20034;SDS011;10178;48.034;9.800;2023-03-29T05:22:55;2.60;;;0.97;;
20034;SDS011;10178;48.034;9.800;2023-03-29T05:25:24;1.30;;;1.20;;
20034;SDS011;10178;48.034;9.800;2023-03-29T05:27:56;3.40;;;1.20;;
20034;SDS011;10178;48.034;9.800;2023-03-29T05:30:23;4.32;;;2.45;;
20034;SDS011;10178;48.034;9.800;2023-03-29T05:32:49;4.13;;;1.33;;
20034;SDS011;10178;48.034;9.800;2023-03-29T05:35:14;7.57;;;2.80;;
20034;SDS011;10178;48.034;9.800;2023-03-29T05:37:41;2.23;;;1.60;;
20034;SDS011;10178;48.034;9.800;2023-03-29T05:40:06;2.47;;;1.77;;
20034;SDS011;10178;48.034;9.800;2023-03-29T05:42:33;3.73;;;1.83;;
20034;SDS011;10178;48.034;9.800;2023-03-29T05:45:02;2.40;;;1.63;;
20034;SDS011;10178;48.034;9.800;2023-03-29T05:47:28;2.03;;;1.20;;
20034;SDS011;10178;48.034;9.800;2023-03-29T05:49:56;1.70;;;1.30;;
20034;SDS011;10178;48.034;9.800;2023-03-29T05:52:40;3.45;;;2.15;;
20034;SDS011;10178;48.034;9.800;2023-03-29T05:55:07;3.17;;;1.93;;
20034;SDS011;10178;48.034;9.800;2023-03-29T05:57:36;1.63;;;1.40;;
20034;SDS011;10178;48.034;9.800;2023-03-29T06:00:03;5.40;;;1.55;;
20034;SDS011;10178;48.034;9.800;2023-03-29T06:02:49;5.28;;;1.20;;
20034;SDS011;10178;48.034;9.800;2023-03-29T06:05:20;1.80;;;1.13;;
20034;SDS011;10178;48.034;9.800;2023-03-29T06:07:49;1.20;;;1.10;;
20034;SDS011;10178;48.034;9.800;2023-03-29T06:10:17;1.30;;;1.10;;
20034;SDS011;10178;48.034;9.800;2023-03-29T06:13:09;1.30;;;1.07;;
20034;SDS011;10178;48.034;9.800;2023-03-29T06:18:40;4.67;;;0.93;;
20034;SDS011;10178;48.034;9.800;2023-03-29T06:21:06;2.27;;;1.17;;
20034;SDS011;10178;48.034;9.800;2023-03-29T06:23:33;1.53;;;0.90;;
20034;SDS011;10178;48.034;9.800;2023-03-29T06:25:58;1.20;;;1.00;;
20034;SDS011;10178;48.034;9.800;2023-03-29T06:28:24;1.23;;;0.93;;
20034;SDS011;10178;48.034;9.800;2023-03-29T06:30:50;1.13;;;0.90;;
20034;SDS011;10178;48.034;9.800;2023-03-29T06:33:29;1.35;;;1.17;;
20034;SDS011;10178;48.034;9.800;2023-03-29T06:36:30;1.15;;;1.05;;
20034;SDS011;10178;48.034;9.800;2023-03-29T06:39:06;3.33;;;1.67;;
20034;SDS011;10178;48.034;9.800;2023-03-29T06:44:33;3.30;;;1.17;;
20034;SDS011;10178;48.034;9.800;2023-03-29T06:47:01;3.72;;;1.20;;
20034;SDS011;10178;48.034;9.800;2023-03-29T07:16:42;1.15;;;1.05;;
20034;SDS011;10178;48.034;9.800;2023-03-29T07:19:10;1.20;;;1.10;;
20034;SDS011;10178;48.034;9.800;2023-03-29T07:21:36;1.05;;;0.90;;
20034;SDS011;10178;48.034;9.800;2023-03-29T07:24:02;2.53;;;1.20;;
20034;SDS011;10178;48.034;9.800;2023-03-29T07:26:28;0.90;;;0.82;;
20034;SDS011;10178;48.034;9.800;2023-03-29T07:28:54;1.02;;;0.90;;
20034;SDS011;10178;48.034;9.800;2023-03-29T07:31:20;2.83;;;1.13;;
20034;SDS011;10178;48.034;9.800;2023-03-29T07:33:45;2.23;;;1.77;;
20034;SDS011;10178;48.034;9.800;2023-03-29T07:36:16;1.07;;;1.00;;
20034;SDS011;10178;48.034;9.800;2023-03-29T07:38:42;6.40;;;1.30;;
20034;SDS011;10178;48.034;9.800;2023-03-29T07:41:08;3.70;;;1.10;;
20034;SDS011;10178;48.034;9.800;2023-03-29T07:43:33;2.47;;;0.90;;
20034;SDS011;10178;48.034;9.800;2023-03-29T07:46:00;1.98;;;1.10;;
20034;SDS011;10178;48.034;9.800;2023-03-29T07:48:26;3.93;;;1.20;;
20034;SDS011;10178;48.034;9.800;2023-03-29T07:50:53;1.35;;;1.15;;
20034;SDS011;10178;48.034;9.800;2023-03-29T07:53:19;1.13;;;1.00;;
20034;SDS011;10178;48.034;9.800;2023-03-29T07:55:45;2.08;;;0.82;;
20034;SDS011;10178;48.034;9.800;2023-03-29T07:58:13;1.55;;;0.90;;
20034;SDS011;10178;48.034;9.800;2023-03-29T08:00:39;2.00;;;0.85;;
20034;SDS011;10178;48.034;9.800;2023-03-29T08:03:05;6.28;;;0.90;;
20034;SDS011;10178;48.034;9.800;2023-03-29T08:05:32;1.20;;;1.10;;
20034;SDS011;10178;48.034;9.800;2023-03-29T08:07:57;2.05;;;0.90;;
20034;SDS011;10178;48.034;9.800;2023-03-29T08:10:23;0.80;;;0.80;;
20034;SDS011;10178;48.034;9.800;2023-03-29T08:12:50;0.90;;;0.90;;
20034;SDS011;10178;48.034;9.800;2023-03-29T08:15:16;1.88;;;0.88;;
20034;SDS011;10178;48.034;9.800;2023-03-29T08:17:42;2.55;;;1.10;;
20034;SDS011;10178;48.034;9.800;2023-03-29T08:20:09;1.95;;;1.10;;
20034;SDS011;10178;48.034;9.800;2023-03-29T08:22:38;2.30;;;1.10;;
20034;SDS011;10178;48.034;9.800;2023-03-29T08:25:05;2.88;;;0.82;;
20034;SDS011;10178;48.034;9.800;2023-03-29T08:27:32;1.20;;;0.82;;
20034;SDS011;10178;48.034;9.800;2023-03-29T08:29:59;2.47;;;1.00;;
20034;SDS011;10178;48.034;9.800;2023-03-29T08:32:25;2.40;;;1.10;;
20034;SDS011;10178;48.034;9.800;2023-03-29T08:34:50;1.20;;;1.08;;
20034;SDS011;10178;48.034;9.800;2023-03-29T08:37:16;1.02;;;1.00;;
20034;SDS011;10178;48.034;9.800;2023-03-29T08:39:42;1.23;;;1.00;;
20034;SDS011;10178;48.034;9.800;2023-03-29T08:53:18;1.23;;;1.10;;
20034;SDS011;10178;48.034;9.800;2023-03-29T08:55:48;1.75;;;0.90;;
20034;SDS011;10178;48.034;9.800;2023-03-29T08:58:19;2.60;;;1.00;;
20034;SDS011;10178;48.034;9.800;2023-03-29T09:00:50;6.13;;;1.20;;
20034;SDS011;10178;48.034;9.800;2023-03-29T09:03:25;1.08;;;0.98;;
20034;SDS011;10178;48.034;9.800;2023-03-29T09:05:58;2.97;;;1.38;;
20034;SDS011;10178;48.034;9.800;2023-03-29T09:08:30;2.90;;;1.20;;
20034;SDS011;10178;48.034;9.800;2023-03-29T09:19:04;1.90;;;1.00;;
20034;SDS011;10178;48.034;9.800;2023-03-29T09:21:45;1.55;;;1.00;;
20034;SDS011;10178;48.034;9.800;2023-03-29T09:27:24;0.77;;;0.77;;
20034;SDS011;10178;48.034;9.800;2023-03-29T09:30:28;2.42;;;1.00;;
20034;SDS011;10178;48.034;9.800;2023-03-29T09:33:02;4.30;;;1.20;;
20034;SDS011;10178;48.034;9.800;2023-03-29T09:35:36;2.28;;;0.95;;
20034;SDS011;10178;48.034;9.800;2023-03-29T09:38:13;2.72;;;1.17;;
20034;SDS011;10178;48.034;9.800;2023-03-29T09:40:46;1.10;;;0.82;;
20034;SDS011;10178;48.034;9.800;2023-03-29T09:43:30;3.50;;;1.13;;
20034;SDS011;10178;48.034;9.800;2023-03-29T09:46:16;1.90;;;1.00;;
20034;SDS011;10178;48.034;9.800;2023-03-29T09:48:47;2.17;;;1.20;;
20034;SDS011;10178;48.034;9.800;2023-03-29T09:51:14;2.83;;;1.30;;
20034;SDS011;10178;48.034;9.800;2023-03-29T09:53:43;1.00;;;1.00;;
20034;SDS011;10178;48.034;9.800;2023-03-29T09:56:26;2.55;;;1.15;;
20034;SDS011;10178;48.034;9.800;2023-03-29T09:58:53;5.00;;;1.10;;
20034;SDS011;10178;48.034;9.800;2023-03-29T10:01:19;2.13;;;1.42;;
20034;SDS011;10178;48.034;9.800;2023-03-29T10:03:49;3.42;;;1.10;;
20034;SDS011;10178;48.034;9.800;2023-03-29T10:06:17;4.35;;;1.08;;
20034;SDS011;10178;48.034;9.800;2023-03-29T10:08:53;3.78;;;1.35;;
20034;SDS011;10178;48.034;9.800;2023-03-29T10:11:30;4.65;;;1.27;;
20034;SDS011;10178;48.034;9.800;2023-03-29T10:14:04;3.85;;;1.13;;
20034;SDS011;10178;48.034;9.800;2023-03-29T10:16:37;3.75;;;1.25;;
20034;SDS011;10178;48.034;9.800;2023-03-29T10:19:45;3.72;;;1.17;;
20034;SDS011;10178;48.034;9.800;2023-03-29T10:22:03;1.65;;;1.13;;
20034;SDS011;10178;48.034;9.800;2023-03-29T10:24:46;2.05;;;1.27;;
20034;SDS011;10178;48.034;9.800;2023-03-29T10:27:30;2.22;;;1.23;;
20034;SDS011;10178;48.034;9.800;2023-03-29T10:30:06;3.50;;;1.20;;
20034;SDS011;10178;48.034;9.800;2023-03-29T10:36:03;1.20;;;0.90;;
20034;SDS011;10178;48.034;9.800;2023-03-29T10:38:43;4.18;;;1.20;;
20034;SDS011;10178;48.034;9.800;2023-03-29T10:41:12;2.65;;;1.15;;
20034;SDS011;10178;48.034;9.800;2023-03-29T10:43:59;3.03;;;1.15;;
20034;SDS011;10178;48.034;9.800;2023-03-29T10:46:48;5.38;;;0.95;;
20034;SDS011;10178;48.034;9.800;2023-03-29T10:50:14;1.88;;;1.27;;
20034;SDS011;10178;48.034;9.800;2023-03-29T10:52:41;2.00;;;1.20;;
20034;SDS011;10178;48.034;9.800;2023-03-29T10:55:07;3.25;;;1.35;;
20034;SDS011;10178;48.034;9.800;2023-03-29T11:00:49;5.70;;;1.40;;
20034;SDS011;10178;48.034;9.800;2023-03-29T11:06:14;1.77;;;1.20;;
20034;SDS011;10178;48.034;9.800;2023-03-29T11:12:23;3.55;;;1.15;;
20034;SDS011;10178;48.034;9.800;2023-03-29T11:24:24;1.58;;;1.27;;
20034;SDS011;10178;48.034;9.800;2023-03-29T11:27:38;2.65;;;1.35;;
20034;SDS011;10178;48.034;9.800;2023-03-29T11:30:27;3.40;;;1.30;;
20034;SDS011;10178;48.034;9.800;2023-03-29T11:33:36;1.92;;;1.05;;
20034;SDS011;10178;48.034;9.800;2023-03-29T11:36:15;3.35;;;1.02;;
20034;SDS011;10178;48.034;9.800;2023-03-29T11:41:37;6.13;;;1.65;;
20034;SDS011;10178;48.034;9.800;2023-03-29T11:47:12;2.05;;;1.30;;
20034;SDS011;10178;48.034;9.800;2023-03-29T11:49:47;3.72;;;1.38;;
20034;SDS011;10178;48.034;9.800;2023-03-29T11:52:36;4.47;;;1.42;;
20034;SDS011;10178;48.034;9.800;2023-03-29T11:55:13;3.33;;;1.00;;
20034;SDS011;10178;48.034;9.800;2023-03-29T11:57:44;4.93;;;1.38;;
20034;SDS011;10178;48.034;9.800;2023-03-29T12:00:19;6.95;;;1.38;;
20034;SDS011;10178;48.034;9.800;2023-03-29T12:03:23;2.45;;;1.13;;
20034;SDS011;10178;48.034;9.800;2023-03-29T12:08:55;5.32;;;1.50;;
20034;SDS011;10178;48.034;9.800;2023-03-29T12:11:29;2.05;;;1.38;;
20034;SDS011;10178;48.034;9.800;2023-03-29T12:14:13;3.35;;;1.20;;
20034;SDS011;10178;48.034;9.800;2023-03-29T12:16:56;5.20;;;1.40;;
20034;SDS011;10178;48.034;9.800;2023-03-29T12:19:29;2.30;;;1.05;;
20034;SDS011;10178;48.034;9.800;2023-03-29T12:22:00;1.80;;;0.95;;
20034;SDS011;10178;48.034;9.800;2023-03-29T12:24:27;4.88;;;1.20;;
20034;SDS011;10178;48.034;9.800;2023-03-29T12:27:16;7.38;;;1.40;;
20034;SDS011;10178;48.034;9.800;2023-03-29T12:30:17;4.78;;;1.30;;
20034;SDS011;10178;48.034;9.800;2023-03-29T12:33:03;3.22;;;1.95;;
20034;SDS011;10178;48.034;9.800;2023-03-29T12:35:56;2.15;;;1.10;;
20034;SDS011;10178;48.034;9.800;2023-03-29T12:38:27;7.07;;;1.65;;
20034;SDS011;10178;48.034;9.800;2023-03-29T12:40:58;7.03;;;1.30;;
20034;SDS011;10178;48.034;9.800;2023-03-29T12:43:26;2.90;;;1.70;;
20034;SDS011;10178;48.034;9.800;2023-03-29T12:46:10;6.50;;;1.77;;
20034;SDS011;10178;48.034;9.800;2023-03-29T12:48:43;1.52;;;1.38;;
20034;SDS011;10178;48.034;9.800;2023-03-29T12:51:20;3.25;;;1.40;;
20034;SDS011;10178;48.034;9.800;2023-03-29T12:53:53;5.13;;;1.48;;
20034;SDS011;10178;48.034;9.800;2023-03-29T12:56:37;2.60;;;1.08;;
20034;SDS011;10178;48.034;9.800;2023-03-29T13:02:56;2.08;;;1.20;;
20034;SDS011;10178;48.034;9.800;2023-03-29T13:09:50;3.70;;;1.73;;
20034;SDS011;10178;48.034;9.800;2023-03-29T13:12:40;1.10;;;0.90;;
20034;SDS011;10178;48.034;9.800;2023-03-29T13:28:21;2.08;;;1.25;;
20034;SDS011;10178;48.034;9.800;2023-03-29T13:31:32;3.17;;;1.33;;
20034;SDS011;10178;48.034;9.800;2023-03-29T13:34:03;3.15;;;1.15;;
20034;SDS011;10178;48.034;9.800;2023-03-29T13:39:28;3.28;;;1.38;;
20034;SDS011;10178;48.034;9.800;2023-03-29T13:44:39;8.18;;;1.58;;
20034;SDS011;10178;48.034;9.800;2023-03-29T13:49:46;3.10;;;1.75;;
20034;SDS011;10178;48.034;9.800;2023-03-29T13:52:20;1.50;;;1.10;;
20034;SDS011;10178;48.034;9.800;2023-03-29T13:57:38;4.05;;;1.30;;
20034;SDS011;10178;48.034;9.800;2023-03-29T14:00:09;3.58;;;1.52;;
20034;SDS011;10178;48.034;9.800;2023-03-29T14:05:12;2.85;;;1.10;;
20034;SDS011;10178;48.034;9.800;2023-03-29T14:07:43;1.55;;;1.25;;
20034;SDS011;10178;48.034;9.800;2023-03-29T14:10:13;3.88;;;1.48;;
20034;SDS011;10178;48.034;9.800;2023-03-29T14:12:40;4.90;;;1.83;;
20034;SDS011;10178;48.034;9.800;2023-03-29T14:15:06;3.85;;;1.20;;
20034;SDS011;10178;48.034;9.800;2023-03-29T14:17:34;5.28;;;1.40;;
20034;SDS011;10178;48.034;9.800;2023-03-29T14:20:00;5.40;;;1.70;;
20034;SDS011;10178;48.034;9.800;2023-03-29T14:22:32;8.02;;;1.52;;
20034;SDS011;10178;48.034;9.800;2023-03-29T14:25:05;3.58;;;1.52;;
20034;SDS011;10178;48.034;9.800;2023-03-29T14:30:22;7.32;;;1.45;;
20034;SDS011;10178;48.034;9.800;2023-03-29T14:32:52;4.95;;;1.60;;
20034;SDS011;10178;48.034;9.800;2023-03-29T14:35:20;3.63;;;1.25;;
20034;SDS011;10178;48.034;9.800;2023-03-29T14:37:53;4.35;;;1.40;;
20034;SDS011;10178;48.034;9.800;2023-03-29T14:40:19;3.13;;;1.27;;
20034;SDS011;10178;48.034;9.800;2023-03-29T14:42:46;5.75;;;1.40;;
20034;SDS011;10178;48.034;9.800;2023-03-29T14:45:13;3.17;;;1.50;;
20034;SDS011;10178;48.034;9.800;2023-03-29T14:47:41;6.88;;;1.40;;
20034;SDS011;10178;48.034;9.800;2023-03-29T14:50:15;1.98;;;1.20;;
20034;SDS011;10178;48.034;9.800;2023-03-29T14:52:52;2.70;;;1.20;;
20034;SDS011;10178;48.034;9.800;2023-03-29T14:55:20;3.22;;;1.40;;
20034;SDS011;10178;48.034;9.800;2023-03-29T14:57:47;3.58;;;1.05;;
20034;SDS011;10178;48.034;9.800;2023-03-29T15:03:02;3.40;;;1.30;;
20034;SDS011;10178;48.034;9.800;2023-03-29T15:08:06;4.53;;;1.55;;
20034;SDS011;10178;48.034;9.800;2023-03-29T15:10:37;3.92;;;1.48;;
20034;SDS011;10178;48.034;9.800;2023-03-29T15:13:05;5.40;;;1.52;;
20034;SDS011;10178;48.034;9.800;2023-03-29T15:15:32;4.88;;;1.10;;
20034;SDS011;10178;48.034;9.800;2023-03-29T15:18:01;3.38;;;1.20;;
20034;SDS011;10178;48.034;9.800;2023-03-29T15:20:33;2.95;;;1.50;;
20034;SDS011;10178;48.034;9.800;2023-03-29T15:23:06;4.43;;;1.50;;
20034;SDS011;10178;48.034;9.800;2023-03-29T15:25:55;4.03;;;1.45;;
20034;SDS011;10178;48.034;9.800;2023-03-29T15:29:00;3.85;;;1.42;;
20034;SDS011;10178;48.034;9.800;2023-03-29T15:31:52;5.18;;;1.40;;
20034;SDS011;10178;48.034;9.800;2023-03-29T15:34:27;7.50;;;1.40;;
20034;SDS011;10178;48.034;9.800;2023-03-29T15:36:54;5.20;;;1.70;;
20034;SDS011;10178;48.034;9.800;2023-03-29T15:39:23;5.80;;;1.73;;
20034;SDS011;10178;48.034;9.800;2023-03-29T15:41:51;9.52;;;1.85;;
20034;SDS011;10178;48.034;9.800;2023-03-29T15:44:21;2.17;;;1.58;;
20034;SDS011;10178;48.034;9.800;2023-03-29T15:46:51;3.47;;;1.38;;
20034;SDS011;10178;48.034;9.800;2023-03-29T15:49:19;3.30;;;1.50;;
20034;SDS011;10178;48.034;9.800;2023-03-29T15:51:45;5.10;;;1.50;;
20034;SDS011;10178;48.034;9.800;2023-03-29T15:54:11;8.02;;;1.60;;
20034;SDS011;10178;48.034;9.800;2023-03-29T15:56:39;10.65;;;2.05;;
20034;SDS011;10178;48.034;9.800;2023-03-29T15:59:11;4.25;;;1.38;;
20034;SDS011;10178;48.034;9.800;2023-03-29T16:01:37;10.07;;;1.60;;
20034;SDS011;10178;48.034;9.800;2023-03-29T16:04:04;6.43;;;1.23;;
20034;SDS011;10178;48.034;9.800;2023-03-29T16:06:35;5.65;;;1.13;;
20034;SDS011;10178;48.034;9.800;2023-03-29T16:09:04;7.95;;;1.27;;
20034;SDS011;10178;48.034;9.800;2023-03-29T16:11:31;5.22;;;1.35;;
20034;SDS011;10178;48.034;9.800;2023-03-29T16:13:56;4.22;;;1.40;;
20034;SDS011;10178;48.034;9.800;2023-03-29T16:16:22;5.25;;;1.50;;
20034;SDS011;10178;48.034;9.800;2023-03-29T16:18:48;5.80;;;1.83;;
20034;SDS011;10178;48.034;9.800;2023-03-29T16:21:14;4.90;;;1.23;;
20034;SDS011;10178;48.034;9.800;2023-03-29T16:23:42;8.15;;;1.55;;
20034;SDS011;10178;48.034;9.800;2023-03-29T16:26:12;4.35;;;1.77;;
20034;SDS011;10178;48.034;9.800;2023-03-29T16:28:38;6.22;;;1.60;;
20034;SDS011;10178;48.034;9.800;2023-03-29T16:31:05;15.20;;;1.90;;
20034;SDS011;10178;48.034;9.800;2023-03-29T16:33:31;7.85;;;1.70;;
20034;SDS011;10178;48.034;9.800;2023-03-29T16:35:57;3.40;;;1.67;;
20034;SDS011;10178;48.034;9.800;2023-03-29T16:38:26;6.25;;;1.80;;
20034;SDS011;10178;48.034;9.800;2023-03-29T16:40:53;4.95;;;1.40;;
20034;SDS011;10178;48.034;9.800;2023-03-29T16:43:19;5.68;;;1.63;;
20034;SDS011;10178;48.034;9.800;2023-03-29T16:45:45;9.43;;;1.48;;
20034;SDS011;10178;48.034;9.800;2023-03-29T16:48:17;12.77;;;2.13;;
20034;SDS011;10178;48.034;9.800;2023-03-29T16:50:43;9.00;;;2.10;;
20034;SDS011;10178;48.034;9.800;2023-03-29T16:53:15;3.95;;;1.83;;
20034;SDS011;10178;48.034;9.800;2023-03-29T16:55:43;9.18;;;1.60;;
20034;SDS011;10178;48.034;9.800;2023-03-29T16:58:10;4.18;;;1.60;;
20034;SDS011;10178;48.034;9.800;2023-03-29T17:00:35;33.88;;;20.10;;
20034;SDS011;10178;48.034;9.800;2023-03-29T17:03:02;29.35;;;16.85;;
20034;SDS011;10178;48.034;9.800;2023-03-29T17:05:28;73.68;;;40.42;;
20034;SDS011;10178;48.034;9.800;2023-03-29T17:07:54;48.30;;;27.95;;
20034;SDS011;10178;48.034;9.800;2023-03-29T17:10:28;11.98;;;7.68;;
20034;SDS011;10178;48.034;9.800;2023-03-29T17:12:55;56.90;;;29.30;;
20034;SDS011;10178;48.034;9.800;2023-03-29T17:15:20;14.68;;;6.25;;
20034;SDS011;10178;48.034;9.800;2023-03-29T17:17:46;15.73;;;7.97;;
20034;SDS011;10178;48.034;9.800;2023-03-29T17:20:12;20.67;;;9.93;;
20034;SDS011;10178;48.034;9.800;2023-03-29T17:22:38;15.25;;;9.23;;
20034;SDS011;10178;48.034;9.800;2023-03-29T17:25:04;5.68;;;3.17;;
20034;SDS011;10178;48.034;9.800;2023-03-29T17:27:44;7.50;;;3.33;;
20034;SDS011;10178;48.034;9.800;2023-03-29T17:30:10;12.10;;;7.10;;
20034;SDS011;10178;48.034;9.800;2023-03-29T17:32:36;11.73;;;6.18;;
20034;SDS011;10178;48.034;9.800;2023-03-29T17:35:02;18.17;;;11.50;;
20034;SDS011;10178;48.034;9.800;2023-03-29T17:37:28;7.82;;;2.00;;
20034;SDS011;10178;48.034;9.800;2023-03-29T17:39:54;11.48;;;5.35;;